Monday, January 21, 2019, 5:10 PM EST
Back to Local

KALB, Albany International Airport

Location: Latham, NY, United States Lat: 42.75
Local Time: 5:10 PM EST (22:10 GMT) Lon: -73.8
Time Zone: US/Eastern Elev: 285 ft

Show me the last for .
Show Decoded

2019-01-21 16:51 METAR KALB 212151Z 30022G33KT 10SM FEW040 FEW080 BKN140 M16/M25 A3014 RMK AO2 PK
                 WND 30033/2143 SLP215 FRQ DRSN T11611250 =
2019-01-21 15:51 METAR KALB 212051Z 30016G27KT 10SM FEW040 SCT080 BKN140 M16/M24 A3012 RMK AO2 PK
                 WND 30040/2012 SLP206 FRQ DRSN T11611239 53023 =
2019-01-21 14:51 METAR KALB 211951Z 31016G34KT 10SM FEW040 SCT080 BKN140 M16/M23 A3007 RMK AO2 PK
                 WND 30034/1944 SLP190 FRQ DRSN T11611233 =
2019-01-21 13:51 METAR KALB 211851Z 31021G30KT 10SM FEW040 SCT080 BKN140 M17/M24 A3005 RMK AO2 PK
                 WND 33032/1834 SLP183 FRQ DRSN T11671244 =
2019-01-21 12:51 METAR KALB 211751Z 31017G27KT 10SM FEW045 SCT070 BKN100 M18/M26 A3005 RMK AO2 PK
                 WND 31036/1721 SNE20 SLP183 4/011 933017 FRQ DRSN P0000 60000 T11781256 11178
                 21217 51005 =
2019-01-21 11:51 METAR KALB 211651Z 30014G27KT 10SM R01/0600VP6000FT -SN SCT045 OVC070 M19/M27
                 A3004 RMK AO2 PK WND 30030/1637 SLP181 FRQ DRSN PCPN VRY LGT P0000 T11941267 =
2019-01-21 11:08 METAR KALB 211608Z 30018G27KT 7SM -SN SCT032 OVC044 M20/M27 A3006 RMK AO2 PK WND
                 32027/1603 FRQ DRSN PCPN VRY LGT P0000 T12001267 =
2019-01-21 10:51 METAR KALB 211551Z 30015G24KT 2SM R01/2600VP6000FT -SN SCT032 OVC044 M20/M27
                 A3006 RMK AO2 SFC VIS 5 SLP187 FRQ DRSN P0000 T12001267 =
2019-01-21 09:51 METAR KALB 211451Z 29017G27KT 2SM -SN OVC036 M21/M27 A3003 RMK AO2 PK WND
                 29027/1450 SFC VIS 2 1/2 SLP178 VIS 2V3 FRQ DRSN P0000 60000 T12111272 51027 =
2019-01-21 09:23 METAR KALB 211423Z 30015G24KT 2SM R01/4000VP6000FT -SN BLSN OVC038 M21/M27 A3002
                 RMK AO2 PK WND 29026/1408 SFC VIS 2 1/2 VIS 2V3 P0000 T12111272 =
2019-01-21 08:51 METAR KALB 211351Z 30016G26KT 3SM -SN BKN046 OVC055 M22/M28 A3001 RMK AO2 PK WND
                 29026/1347 SLP169 FRQ DRSN P0000 T12171278 =
2019-01-21 07:51 METAR KALB 211251Z 29016G26KT 5SM -SN BLSN BKN034 M22/M28 A2998 RMK AO2 PK WND
                 29029/1222 SLP160 P0000 T12171283 =
2019-01-21 06:51 METAR KALB 211151Z 30012G24KT 6SM -SN BKN034 M21/M28 A2995 RMK AO2 SNB14 SLP151
                 FRQ DRSN 4/011 P0000 60000 70057 T12111278 11183 21211 53019 =
2019-01-21 05:51 METAR KALB 211051Z 30016G26KT 3SM BKN030 BKN050 M21/M27 A2992 RMK AO2 PK WND
                 32026/1046 SFC VIS 7 SNE42 SLP138 PRESENT WX VCSH FRQ DRSN P0000 T12111272 =
2019-01-21 05:48 METAR KALB 211048Z 30015G26KT 3SM BKN030 BKN050 M21/M27 A2991 RMK AO2 PK WND
                 32026/1046 SFC VIS 7 SNE42 PRESENT WX VCSH FRQ DRSN P0000 =
2019-01-21 05:27 METAR KALB 211027Z 28015KT 3SM -SN BLSN OVC024 M21/M27 A2990 RMK AO2 SFC VIS 4
                 P0000 T12061267 =
2019-01-21 04:51 METAR KALB 210951Z 29013KT 3SM -SN OVC049 M21/M26 A2990 RMK AO2 SLP131 OCNL DRSN
                 P0000 T12061256 =
2019-01-21 03:51 METAR KALB 210851Z 30012KT 3SM -SN BKN041 OVC060 M19/M25 A2990 RMK AO2 SFC VIS 4
                 SLP130 OCNL DRSN P0000 60000 T11941250 51028 =
2019-01-21 02:51 METAR KALB 210751Z 30014G23KT 5SM -SN BKN037 OVC060 M19/M25 A2988 RMK AO2 SNB23
                 SLP124 OCNL DRSN P0000 T11941250 =
2019-01-21 01:51 METAR KALB 210651Z 30015G22KT 10SM SCT050 M19/M26 A2984 RMK AO2 PK WND
                 29027/0617 SLP111 FRQ DRSN T11941256 =
2019-01-21 00:51 METAR KALB 210551Z 29017G30KT 10SM OVC050 M18/M26 A2981 RMK AO2 PK WND
                 29030/0542 SLP101 FRQ DRSN 4/011 60000 T11831256 11144 21183 51019 =
2019-01-20 23:51 METAR KALB 210451Z 30011G21KT 10SM OVC060 M18/M24 A2981 RMK AO2 PK WND
                 29026/0423 SLP100 OCNL DRSN T11781244 410611178 =
2019-01-20 22:51 METAR KALB 210351Z 29014G25KT 10SM SCT050 M18/M24 A2979 RMK AO2 SLP093 OCNL DRSN
                 T11781239 =
2019-01-20 21:51 METAR KALB 210251Z 31015G24KT 10SM FEW034 SCT060 M17/M23 A2976 RMK AO2 PK WND
                 30027/0240 SNE23 SLP082 FRQ DRSN P0000 60000 T11671233 51022 =
2019-01-20 20:51 METAR KALB 210151Z 30015G19KT 10SM -SN FEW034 SCT055 M16/M23 A2974 RMK AO2 PK
                 WND 29029/0059 SLP075 PCPN VRY LGT FRQ DRSN P0000 T11611228 =
2019-01-20 19:51 METAR KALB 210051Z 30017G23KT 8SM -SN BKN033 OVC044 M15/M22 A2973 RMK AO2 PK WND
                 29027/2352 SLP073 FRQ DRSN OCNL BINOVC P0000 T11501217 =
2019-01-20 18:51 METAR KALB 202351Z 29019G30KT 7SM -SN FEW025 BKN032 BKN044 M14/M21 A2969 RMK AO2
                 PK WND 29032/2340 SLP059 4/012 FRQ DRSN P0000 60002 T11441206 11061 21144 51043
                 =
2019-01-20 17:51 METAR KALB 202251Z 29018G30KT 7SM -SN SCT025 BKN034 BKN042 M13/M20 A2965 RMK AO2
                 PK WND 30034/2211 SLP046 FRQ DRSN P0000 T11331200 =
2019-01-20 17:26 METAR KALB 202226Z 29017G24KT 7SM -SN SCT025 BKN034 BKN042 M13/M20 A2964 RMK AO2
                 PK WND 30034/2211 FRQ DRSN P0000 T11331200 =

Support USWX by starting your Amazon purchase here.